Time;durP1;ratioP1;P1;durP2;ratioP2;P2;SDS_P1;SDS_P2;PMS_P1;PMS_P2;Temp;Humidity;BMP_temperature;BMP_pressure;BME280_temperature;BME280_humidity;BME280_pressure;Samples;Min_cycle;Max_cycle;Signal;HPM_P1;HPM_P2
2023/07/24 00:01:30;;;;;;;;;;;;;;;34.54;59.42;100317.09;5100590;28;19951;-56
2023/07/24 00:03:56;;;;;;;;;;;;;;;34.57;59.34;100324.69;5083746;28;19920;-57
2023/07/24 00:06:21;;;;;;;;;;;;;;;34.73;58.27;100324.56;5082139;28;19916;-57
2023/07/24 00:08:47;;;;;;;;;;;;;;;34.05;60.66;100316.69;5095129;28;19927;-58
2023/07/24 00:11:12;;;;;;;;;;;;;;;34.01;60.90;100319.38;5101589;28;19920;-58
2023/07/24 00:13:38;;;;;;;;;;;;;;;33.46;63.35;100314.78;5106714;28;19988;-57
2023/07/24 00:16:10;;;;;;;;;;;;;;;33.06;66.46;100312.34;5095121;28;19938;-54
2023/07/24 00:18:35;;;;;;;;;;;;;;;34.20;61.51;100316.94;5093949;28;19920;-56
2023/07/24 00:21:01;;;;;;;;;;;;;;;33.21;63.93;100314.22;5080587;28;19917;-56
2023/07/24 00:23:26;;;;;;;;;;;;;;;33.36;65.54;100309.00;5084490;28;19975;-57
2023/07/24 00:25:53;;;;;;;;;;;;;;;33.68;62.95;100311.63;5102739;28;19943;-58
2023/07/24 00:28:18;;;;;;;;;;;;;;;33.44;64.32;100296.91;5094691;28;19962;-56
2023/07/24 00:30:44;;;;;;;;;;;;;;;32.97;66.94;100298.69;5077480;28;19917;-57
2023/07/24 00:33:09;;;;;;;;;;;;;;;33.27;65.17;100298.94;5094468;28;19917;-58
2023/07/24 00:35:35;;;;;;;;;;;;;;;33.78;63.27;100286.06;5094982;28;19928;-57
2023/07/24 00:38:00;;;;;;;;;;;;;;;33.72;62.59;100282.00;5076714;28;19920;-58
2023/07/24 00:40:26;;;;;;;;;;;;;;;33.38;63.98;100262.31;5094037;28;19917;-56
2023/07/24 00:42:51;;;;;;;;;;;;;;;34.11;61.13;100270.81;5078629;28;19928;-57
2023/07/24 00:45:17;;;;;;;;;;;;;;;33.92;61.62;100259.78;5094514;28;19938;-57
2023/07/24 00:47:43;;;;;;;;;;;;;;;33.52;62.49;100256.28;5094585;28;19987;-55
2023/07/24 00:50:08;;;;;;;;;;;;;;;33.74;62.99;100258.28;5094641;28;19938;-57
2023/07/24 00:52:34;;;;;;;;;;;;;;;33.37;63.81;100255.19;5076837;28;19920;-57
2023/07/24 00:55:00;;;;;;;;;;;;;;;33.10;65.96;100260.59;5094045;28;19912;-55
2023/07/24 00:57:26;;;;;;;;;;;;;;;32.71;67.81;100248.28;5094628;28;19947;-55
2023/07/24 00:59:51;;;;;;;;;;;;;;;32.17;74.20;100242.28;5073703;28;19946;-56
2023/07/24 01:02:17;;;;;;;;;;;;;;;32.31;72.91;100243.78;5095996;28;19980;-58
2023/07/24 01:04:42;;;;;;;;;;;;;;;32.65;71.13;100243.41;5113229;28;19948;-56
2023/07/24 01:07:08;;;;;;;;;;;;;;;32.78;71.05;100250.41;5082882;28;19916;-57
2023/07/24 01:09:34;;;;;;;;;;;;;;;33.31;66.77;100252.72;5095186;28;19971;-56
2023/07/24 01:12:07;;;;;;;;;;;;;;;32.00;73.66;100253.69;5094885;28;19932;-57
2023/07/24 01:14:39;;;;;;;;;;;;;;;31.61;78.64;100238.50;5100839;28;19972;-55
2023/07/24 01:17:06;;;;;;;;;;;;;;;31.77;77.82;100242.47;5081581;28;19923;-57
2023/07/24 01:19:35;;;;;;;;;;;;;;;32.22;74.63;100237.63;5111022;28;19952;-59
2023/07/24 01:22:08;;;;;;;;;;;;;;;32.84;70.87;100235.09;5110819;28;19927;-58
2023/07/24 01:24:36;;;;;;;;;;;;;;;32.64;71.54;100237.06;5080289;28;19923;-58
2023/07/24 01:27:02;;;;;;;;;;;;;;;32.39;72.97;100230.94;5077094;28;19939;-59
2023/07/24 01:29:27;;;;;;;;;;;;;;;32.26;72.76;100227.44;5094896;28;19920;-57
2023/07/24 01:31:53;;;;;;;;;;;;;;;31.74;75.16;100230.94;5077105;28;19924;-57
2023/07/24 01:34:18;;;;;;;;;;;;;;;32.39;72.10;100234.53;5077293;28;19916;-59
2023/07/24 01:36:45;;;;;;;;;;;;;;;32.99;70.06;100224.38;5094579;28;19935;-59
2023/07/24 01:39:11;;;;;;;;;;;;;;;33.14;68.74;100217.97;5110803;28;19931;-57
2023/07/24 01:41:37;;;;;;;;;;;;;;;32.42;72.20;100214.44;5110562;28;19916;-55
2023/07/24 01:44:04;;;;;;;;;;;;;;;32.12;73.20;100211.31;5094707;28;19959;-57
2023/07/24 01:46:30;;;;;;;;;;;;;;;32.46;71.03;100214.53;5086674;28;19916;-57
2023/07/24 01:48:56;;;;;;;;;;;;;;;32.49;70.07;100208.25;5094746;28;19917;-55
2023/07/24 01:51:21;;;;;;;;;;;;;;;32.31;72.53;100210.59;5094238;28;19921;-56
2023/07/24 01:53:47;;;;;;;;;;;;;;;32.06;75.55;100202.50;5098676;28;19983;-57
2023/07/24 01:56:12;;;;;;;;;;;;;;;32.30;72.18;100209.00;5102975;28;19916;-58
2023/07/24 01:58:38;;;;;;;;;;;;;;;31.95;76.70;100199.50;5094890;28;19916;-58
2023/07/24 02:01:04;;;;;;;;;;;;;;;32.96;70.68;100189.88;5117474;28;19916;-57
2023/07/24 02:03:29;;;;;;;;;;;;;;;33.54;66.50;100192.97;5101262;28;19923;-59
2023/07/24 02:05:54;;;;;;;;;;;;;;;32.74;70.20;100189.41;5094400;28;19995;-57
2023/07/24 02:08:20;;;;;;;;;;;;;;;32.13;75.41;100190.81;5094340;28;19920;-57
2023/07/24 02:10:48;;;;;;;;;;;;;;;32.09;73.57;100190.72;5076944;28;19924;-58
2023/07/24 02:13:13;;;;;;;;;;;;;;;32.60;69.13;100191.91;5094378;28;19917;-57
2023/07/24 02:15:47;;;;;;;;;;;;;;;32.44;69.42;100194.72;5111492;28;19916;-58
2023/07/24 02:18:12;;;;;;;;;;;;;;;33.48;65.17;100186.97;5094305;28;19983;-58
2023/07/24 02:20:38;;;;;;;;;;;;;;;33.54;63.26;100185.47;5110679;28;19916;-52
2023/07/24 02:23:03;;;;;;;;;;;;;;;33.18;65.41;100182.00;5094510;28;19916;-58
2023/07/24 02:25:28;;;;;;;;;;;;;;;32.24;70.92;100169.75;5113958;28;19912;-55
2023/07/24 02:27:54;;;;;;;;;;;;;;;32.51;68.40;100177.44;5089330;28;19916;-59
2023/07/24 02:30:22;;;;;;;;;;;;;;;32.57;69.84;100173.25;5113845;28;19917;-56
2023/07/24 02:32:48;;;;;;;;;;;;;;;32.85;67.68;100180.56;5097514;28;20405;-56
2023/07/24 02:35:14;;;;;;;;;;;;;;;33.13;65.86;100168.47;5087992;28;19920;-58
2023/07/24 02:37:40;;;;;;;;;;;;;;;32.79;67.19;100170.94;5105757;28;19912;-59
2023/07/24 02:40:06;;;;;;;;;;;;;;;31.74;74.69;100172.06;5097473;28;19924;-57
2023/07/24 02:42:31;;;;;;;;;;;;;;;31.53;75.46;100166.81;5080083;28;19983;-55
2023/07/24 02:44:56;;;;;;;;;;;;;;;32.21;72.43;100169.66;5097347;28;19917;-58
2023/07/24 02:47:22;;;;;;;;;;;;;;;31.72;74.90;100164.16;5118036;28;19942;-59
2023/07/24 02:49:47;;;;;;;;;;;;;;;32.00;71.75;100166.03;5077490;28;19958;-57
2023/07/24 02:52:13;;;;;;;;;;;;;;;32.21;72.37;100164.13;5096675;28;19920;-54
2023/07/24 02:54:38;;;;;;;;;;;;;;;32.44;69.30;100162.31;5097348;28;19916;-57
2023/07/24 02:57:04;;;;;;;;;;;;;;;33.07;66.83;100156.09;5098265;28;19927;-55
2023/07/24 02:59:29;;;;;;;;;;;;;;;33.25;65.61;100143.38;5098786;28;19916;-55
2023/07/24 03:01:55;;;;;;;;;;;;;;;33.45;64.24;100146.13;5079095;28;19962;-55
2023/07/24 03:04:20;;;;;;;;;;;;;;;32.53;67.81;100144.72;5113554;28;19924;-56
2023/07/24 03:06:46;;;;;;;;;;;;;;;33.21;66.85;100148.03;5097082;28;19924;-57
2023/07/24 03:09:11;;;;;;;;;;;;;;;32.28;71.44;100147.69;5116443;28;19938;-57
2023/07/24 03:11:37;;;;;;;;;;;;;;;33.17;67.08;100159.06;5085073;28;19927;-58
2023/07/24 03:14:03;;;;;;;;;;;;;;;33.14;65.91;100145.94;5099498;28;19920;-57
2023/07/24 03:16:28;;;;;;;;;;;;;;;33.30;66.38;100145.84;5091799;28;20011;-54
2023/07/24 03:18:54;;;;;;;;;;;;;;;33.56;65.82;100133.25;5112583;28;20011;-58
2023/07/24 03:21:20;;;;;;;;;;;;;;;32.93;69.10;100140.00;5079256;28;19916;-55
2023/07/24 03:23:46;;;;;;;;;;;;;;;32.88;70.47;100130.84;5112747;28;19923;-50
2023/07/24 03:26:11;;;;;;;;;;;;;;;32.88;70.25;100132.78;5098702;28;19942;-59
2023/07/24 03:28:37;;;;;;;;;;;;;;;32.96;71.64;100126.22;5115612;28;19919;-57
2023/07/24 03:31:03;;;;;;;;;;;;;;;33.01;70.21;100128.69;5096548;28;19927;-58
2023/07/24 03:33:28;;;;;;;;;;;;;;;32.81;72.69;100124.31;5095147;28;19944;-57
2023/07/24 03:35:53;;;;;;;;;;;;;;;33.57;67.21;100140.38;5096544;28;19917;-57
2023/07/24 03:38:19;;;;;;;;;;;;;;;31.49;75.33;100125.28;5114880;28;19920;-56
2023/07/24 03:40:45;;;;;;;;;;;;;;;31.17;79.01;100119.69;5096449;28;19922;-57
2023/07/24 03:43:12;;;;;;;;;;;;;;;32.01;75.19;100128.13;5094686;28;20502;-57
2023/07/24 03:45:37;;;;;;;;;;;;;;;32.69;71.54;100136.34;5106128;28;19912;-58
2023/07/24 03:48:03;;;;;;;;;;;;;;;33.34;67.23;100134.84;5099119;28;19923;-53
2023/07/24 03:50:29;;;;;;;;;;;;;;;33.46;65.83;100131.09;5096352;28;19920;-58
2023/07/24 03:52:54;;;;;;;;;;;;;;;32.84;69.54;100138.22;5096073;28;19904;-54
2023/07/24 03:55:20;;;;;;;;;;;;;;;31.67;74.46;100135.97;5096208;28;19916;-55
2023/07/24 03:57:45;;;;;;;;;;;;;;;32.27;72.16;100135.81;5096085;28;19920;-56
2023/07/24 04:00:11;;;;;;;;;;;;;;;32.01;73.55;100128.13;5095984;28;19944;-58
2023/07/24 04:02:40;;;;;;;;;;;;;;;32.33;71.20;100122.56;5096057;28;19924;-57
2023/07/24 04:05:05;;;;;;;;;;;;;;;32.53;70.44;100119.81;5096122;28;19986;-59
2023/07/24 04:07:31;;;;;;;;;;;;;;;32.72;69.18;100133.63;5101445;28;19962;-59
2023/07/24 04:09:56;;;;;;;;;;;;;;;30.93;82.36;100121.44;5096011;28;19923;-60
2023/07/24 04:12:22;;;;;;;;;;;;;;;32.56;71.44;100128.16;5096915;28;19928;-59
2023/07/24 04:14:48;;;;;;;;;;;;;;;32.92;68.82;100119.03;5105095;28;19921;-59
2023/07/24 04:17:14;;;;;;;;;;;;;;;31.95;73.09;100119.31;5098495;28;19983;-60
2023/07/24 04:19:39;;;;;;;;;;;;;;;31.55;78.17;100115.56;5096053;28;19924;-59
2023/07/24 04:22:05;;;;;;;;;;;;;;;31.66;74.22;100131.59;5095697;28;19920;-61
2023/07/24 04:24:30;;;;;;;;;;;;;;;32.06;72.75;100130.59;5078303;28;19932;-59
2023/07/24 04:26:56;;;;;;;;;;;;;;;32.08;71.91;100135.78;5078084;28;19931;-60
2023/07/24 04:29:23;;;;;;;;;;;;;;;32.19;73.03;100134.06;5095625;28;19917;-60
2023/07/24 04:31:50;;;;;;;;;;;;;;;32.41;71.17;100132.59;5095411;28;19928;-59
2023/07/24 04:34:15;;;;;;;;;;;;;;;31.70;75.83;100144.34;5100143;28;19927;-58
2023/07/24 04:36:41;;;;;;;;;;;;;;;31.69;74.66;100134.44;5095471;28;19924;-60
2023/07/24 04:39:06;;;;;;;;;;;;;;;31.96;72.98;100137.50;5105476;28;19947;-58
2023/07/24 04:41:32;;;;;;;;;;;;;;;32.16;72.03;100134.78;5095127;28;19916;-59
2023/07/24 04:43:57;;;;;;;;;;;;;;;32.77;68.85;100140.06;5097226;28;19924;-60
2023/07/24 04:46:23;;;;;;;;;;;;;;;32.55;69.23;100145.94;5094680;28;19916;-60
2023/07/24 04:48:48;;;;;;;;;;;;;;;32.75;69.26;100149.50;5102063;28;19992;-59
2023/07/24 04:51:14;;;;;;;;;;;;;;;32.47;69.99;100146.97;5095081;28;19921;-59
2023/07/24 04:53:39;;;;;;;;;;;;;;;32.89;68.56;100151.00;5103739;28;19922;-59
2023/07/24 04:56:05;;;;;;;;;;;;;;;31.55;76.07;100143.19;5098745;28;19920;-59
2023/07/24 04:58:30;;;;;;;;;;;;;;;31.72;77.60;100144.00;5095234;28;19991;-60
2023/07/24 05:00:56;;;;;;;;;;;;;;;30.93;81.09;100142.69;5095162;28;19916;-58
2023/07/24 05:03:21;;;;;;;;;;;;;;;30.88;85.55;100138.22;5077533;28;19931;-59
2023/07/24 05:05:56;;;;;;;;;;;;;;;31.65;78.76;100152.13;5095016;28;19920;-59
2023/07/24 05:08:22;;;;;;;;;;;;;;;31.70;77.75;100143.56;5095052;28;19923;-58
2023/07/24 05:10:53;;;;;;;;;;;;;;;31.85;76.95;100141.97;5094905;28;19924;-59
2023/07/24 05:13:18;;;;;;;;;;;;;;;31.94;73.83;100150.84;5094943;28;19917;-60
2023/07/24 05:15:44;;;;;;;;;;;;;;;31.64;75.57;100151.31;5094817;28;19923;-58
2023/07/24 05:18:09;;;;;;;;;;;;;;;31.31;77.35;100147.69;5103727;28;19916;-58
2023/07/24 05:20:35;;;;;;;;;;;;;;;32.38;71.91;100147.16;5097399;28;19944;-59
2023/07/24 05:23:00;;;;;;;;;;;;;;;32.46;71.56;100148.91;5094992;28;19924;-60
2023/07/24 05:25:26;;;;;;;;;;;;;;;33.28;65.77;100150.94;5094746;28;19922;-59
2023/07/24 05:27:51;;;;;;;;;;;;;;;32.40;69.54;100147.59;5094929;28;19939;-59
2023/07/24 05:30:17;;;;;;;;;;;;;;;32.86;67.56;100146.16;5094420;28;19917;-59
2023/07/24 05:32:42;;;;;;;;;;;;;;;32.18;69.72;100149.84;5103141;28;19920;-58
2023/07/24 05:35:08;;;;;;;;;;;;;;;30.97;74.53;100152.69;5098594;28;19939;-58
2023/07/24 05:37:33;;;;;;;;;;;;;;;30.89;78.69;100148.09;5090497;28;19996;-57
2023/07/24 05:39:59;;;;;;;;;;;;;;;31.44;76.75;100153.16;5094564;28;19923;-56
2023/07/24 05:42:24;;;;;;;;;;;;;;;30.99;78.79;100150.38;5094041;28;19917;-55
2023/07/24 05:44:50;;;;;;;;;;;;;;;31.94;73.74;100158.38;5094542;28;19917;-58
2023/07/24 05:47:16;;;;;;;;;;;;;;;31.13;76.86;100151.91;5094154;28;19920;-57
2023/07/24 05:49:41;;;;;;;;;;;;;;;31.36;76.69;100157.69;5094674;28;19988;-56
2023/07/24 05:52:07;;;;;;;;;;;;;;;31.33;76.45;100167.47;5093926;28;19920;-55
2023/07/24 05:54:32;;;;;;;;;;;;;;;31.31;75.63;100169.00;5094366;28;19916;-56
2023/07/24 05:56:58;;;;;;;;;;;;;;;31.24;74.84;100160.50;5088761;28;20399;-53
2023/07/24 05:59:23;;;;;;;;;;;;;;;31.91;73.19;100159.88;5095757;28;19927;-56
2023/07/24 06:01:49;;;;;;;;;;;;;;;31.26;76.07;100166.50;5093796;28;19930;-56
2023/07/24 06:04:14;;;;;;;;;;;;;;;31.70;73.50;100157.38;5101171;28;19917;-59
2023/07/24 06:06:40;;;;;;;;;;;;;;;31.29;77.21;100157.53;5097570;28;19920;-58
2023/07/24 06:09:05;;;;;;;;;;;;;;;31.25;78.06;100160.16;5103747;28;19920;-54
2023/07/24 06:11:31;;;;;;;;;;;;;;;30.96;80.23;100155.78;5097474;28;19920;-56
2023/07/24 06:13:56;;;;;;;;;;;;;;;31.94;74.66;100161.13;5097812;28;19980;-56
2023/07/24 06:16:22;;;;;;;;;;;;;;;31.44;75.25;100162.25;5096917;28;19917;-55
2023/07/24 06:18:47;;;;;;;;;;;;;;;31.21;76.96;100167.56;5097864;28;19924;-57
2023/07/24 06:21:13;;;;;;;;;;;;;;;31.40;76.83;100172.41;5097296;28;19928;-55
2023/07/24 06:23:38;;;;;;;;;;;;;;;31.23;77.70;100168.00;5097616;28;20022;-55
2023/07/24 06:26:03;;;;;;;;;;;;;;;31.83;73.44;100177.47;5097540;28;19916;-57
2023/07/24 06:28:31;;;;;;;;;;;;;;;31.61;74.81;100172.19;5088150;28;19923;-57
2023/07/24 06:30:57;;;;;;;;;;;;;;;31.47;76.26;100174.56;5097435;28;19921;-59
2023/07/24 06:33:22;;;;;;;;;;;;;;;31.96;71.77;100175.41;5097431;28;19916;-56
2023/07/24 06:35:50;;;;;;;;;;;;;;;31.57;72.99;100167.69;5095588;28;19912;-55
2023/07/24 06:38:17;;;;;;;;;;;;;;;30.98;75.64;100168.09;5099628;28;19920;-56
2023/07/24 06:40:42;;;;;;;;;;;;;;;31.71;73.19;100170.81;5097332;28;19930;-57
2023/07/24 06:43:07;;;;;;;;;;;;;;;31.51;69.97;100182.94;5083949;28;19924;-54
2023/07/24 06:45:33;;;;;;;;;;;;;;;31.73;71.14;100173.22;5100818;28;19917;-53
2023/07/24 06:47:58;;;;;;;;;;;;;;;31.88;70.88;100175.22;5096951;28;20265;-57
2023/07/24 06:50:24;;;;;;;;;;;;;;;32.39;67.80;100181.97;5096925;28;19924;-54
2023/07/24 06:52:51;;;;;;;;;;;;;;;32.87;66.74;100186.53;5085827;28;19991;-55
2023/07/24 06:55:17;;;;;;;;;;;;;;;31.59;68.98;100190.25;5096813;28;19923;-55
2023/07/24 06:57:43;;;;;;;;;;;;;;;32.08;68.73;100174.50;5098723;28;19917;-56
2023/07/24 07:00:11;;;;;;;;;;;;;;;32.58;63.92;100188.69;5097411;28;19923;-56
2023/07/24 07:02:37;;;;;;;;;;;;;;;33.17;63.60;100195.06;5094783;28;19928;-58
2023/07/24 07:05:04;;;;;;;;;;;;;;;31.44;69.32;100192.63;5104327;28;19922;-57
2023/07/24 07:07:30;;;;;;;;;;;;;;;31.46;73.04;100198.59;5102334;28;19916;-57
2023/07/24 07:09:55;;;;;;;;;;;;;;;31.77;68.30;100182.44;5102111;28;19927;-56
2023/07/24 07:12:21;;;;;;;;;;;;;;;33.52;61.32;100190.59;5095177;28;19924;-53
2023/07/24 07:14:46;;;;;;;;;;;;;;;33.44;61.06;100192.44;5096233;28;19916;-56
2023/07/24 07:17:12;;;;;;;;;;;;;;;32.89;64.16;100175.91;5095298;28;19932;-57
2023/07/24 07:19:37;;;;;;;;;;;;;;;32.31;63.02;100174.63;5096983;28;19952;-57
2023/07/24 07:22:03;;;;;;;;;;;;;;;32.86;60.77;100176.63;5096638;28;19938;-57
2023/07/24 07:24:28;;;;;;;;;;;;;;;32.69;64.07;100177.84;5098373;28;19979;-58
2023/07/24 07:26:53;;;;;;;;;;;;;;;32.33;62.89;100175.09;5099476;28;19992;-57
2023/07/24 07:29:19;;;;;;;;;;;;;;;32.69;61.30;100180.63;5103296;28;19920;-58
2023/07/24 07:31:44;;;;;;;;;;;;;;;32.33;65.92;100177.88;5082300;28;19932;-57
2023/07/24 07:34:10;;;;;;;;;;;;;;;32.85;62.62;100184.09;5091876;28;20945;-54
2023/07/24 07:36:35;;;;;;;;;;;;;;;31.71;71.32;100172.78;5098057;28;19921;-58
2023/07/24 07:39:00;;;;;;;;;;;;;;;32.39;66.27;100175.59;5095633;28;20031;-58
2023/07/24 07:41:25;;;;;;;;;;;;;;;31.32;71.81;100171.41;5098006;28;19920;-58
2023/07/24 07:43:51;;;;;;;;;;;;;;;32.01;68.70;100175.13;5093877;28;19920;-57
2023/07/24 07:46:16;;;;;;;;;;;;;;;31.72;70.40;100168.88;5075861;28;19923;-57
2023/07/24 07:48:42;;;;;;;;;;;;;;;32.29;68.30;100166.69;5096169;28;19916;-57
2023/07/24 07:51:07;;;;;;;;;;;;;;;32.49;66.25;100171.47;5099989;28;19924;-58
2023/07/24 07:53:32;;;;;;;;;;;;;;;31.71;70.14;100164.50;5090739;28;19916;-58
2023/07/24 07:55:59;;;;;;;;;;;;;;;33.85;61.06;100163.41;5095747;28;19965;-56
2023/07/24 07:58:25;;;;;;;;;;;;;;;33.71;58.04;100169.53;5101513;28;19955;-58
2023/07/24 08:00:50;;;;;;;;;;;;;;;34.76;57.21;100171.09;5095570;28;20310;-58
2023/07/24 08:03:16;;;;;;;;;;;;;;;32.47;62.59;100164.34;5095284;28;19924;-57
2023/07/24 08:05:41;;;;;;;;;;;;;;;33.08;64.11;100163.22;5099816;28;19924;-58
2023/07/24 08:08:06;;;;;;;;;;;;;;;31.86;63.24;100166.50;5100117;28;19948;-57
2023/07/24 08:10:31;;;;;;;;;;;;;;;32.32;60.18;100171.53;5089949;28;19921;-55
2023/07/24 08:12:57;;;;;;;;;;;;;;;32.26;62.36;100184.00;5089637;28;19971;-51
2023/07/24 08:15:22;;;;;;;;;;;;;;;32.04;65.03;100171.63;5101150;28;19916;-56
2023/07/24 08:17:47;;;;;;;;;;;;;;;31.77;64.27;100176.91;5107524;28;19948;-56
2023/07/24 08:20:13;;;;;;;;;;;;;;;32.21;62.68;100164.94;5099754;28;19939;-55
2023/07/24 08:22:38;;;;;;;;;;;;;;;32.53;61.25;100180.69;5094617;28;19968;-56
2023/07/24 08:25:04;;;;;;;;;;;;;;;32.03;64.38;100172.78;5094922;28;19916;-56
2023/07/24 08:27:29;;;;;;;;;;;;;;;33.06;59.92;100174.66;5095134;28;19916;-55
2023/07/24 08:29:55;;;;;;;;;;;;;;;32.74;59.86;100175.56;5100141;28;19920;-58
2023/07/24 08:32:20;;;;;;;;;;;;;;;32.50;59.02;100184.16;5094988;28;19959;-56
2023/07/24 08:34:46;;;;;;;;;;;;;;;32.79;56.67;100170.94;5094244;28;19924;-58
2023/07/24 08:37:12;;;;;;;;;;;;;;;32.90;56.65;100174.75;5094967;28;19916;-56
2023/07/24 08:39:38;;;;;;;;;;;;;;;32.44;57.36;100176.13;5112791;28;19944;-56
2023/07/24 08:42:11;;;;;;;;;;;;;;;32.18;56.24;100187.78;5094770;28;19917;-56
2023/07/24 08:44:37;;;;;;;;;;;;;;;32.49;56.99;100177.00;5094553;28;19912;-55
2023/07/24 08:47:03;;;;;;;;;;;;;;;33.26;55.28;100183.75;5102067;28;19917;-57
2023/07/24 08:49:29;;;;;;;;;;;;;;;32.74;56.37;100174.78;5093835;28;19916;-57
2023/07/24 08:51:55;;;;;;;;;;;;;;;33.63;54.91;100174.16;5098627;28;19917;-56
2023/07/24 08:54:21;;;;;;;;;;;;;;;33.53;54.79;100174.75;5094341;28;19983;-56
2023/07/24 08:56:50;;;;;;;;;;;;;;;34.17;52.38;100180.59;5100836;28;19931;-56
2023/07/24 08:59:15;;;;;;;;;;;;;;;34.04;52.67;100176.41;5107247;28;20157;-58
2023/07/24 09:01:41;;;;;;;;;;;;;;;33.81;51.03;100176.44;5092009;28;19920;-59
2023/07/24 09:04:06;;;;;;;;;;;;;;;33.21;52.02;100164.66;5105862;28;19935;-55
2023/07/24 09:06:32;;;;;;;;;;;;;;;33.57;50.81;100161.78;5096810;28;19935;-58
2023/07/24 09:08:57;;;;;;;;;;;;;;;33.68;49.93;100164.69;5094803;28;19923;-56
2023/07/24 09:11:23;;;;;;;;;;;;;;;34.41;48.96;100153.56;5099737;28;19924;-56
2023/07/24 09:13:49;;;;;;;;;;;;;;;36.02;44.90;100148.50;5094352;28;19944;-58
2023/07/24 09:16:25;;;;;;;;;;;;;;;34.75;47.34;100141.72;5101215;28;19938;-57
2023/07/24 09:18:52;;;;;;;;;;;;;;;34.46;45.92;100144.91;5097903;28;19924;-57
2023/07/24 09:21:30;;;;;;;;;;;;;;;34.74;45.61;100127.03;5094570;28;19972;-58
2023/07/24 09:23:56;;;;;;;;;;;;;;;33.96;47.14;100130.34;5094671;28;19920;-56
2023/07/24 09:26:22;;;;;;;;;;;;;;;34.26;46.82;100124.00;5101210;28;19947;-54
2023/07/24 09:28:54;;;;;;;;;;;;;;;33.82;46.40;100130.88;5095519;28;19927;-57
2023/07/24 09:31:19;;;;;;;;;;;;;;;33.59;45.68;100132.50;5106985;28;19931;-52
2023/07/24 09:33:45;;;;;;;;;;;;;;;34.59;49.73;100116.91;5096739;28;19916;-57
2023/07/24 09:36:10;;;;;;;;;;;;;;;33.38;49.87;100121.03;5102307;28;19916;-55
2023/07/24 09:38:36;;;;;;;;;;;;;;;33.57;51.52;100115.44;5101793;28;19940;-55
2023/07/24 09:41:02;;;;;;;;;;;;;;;33.47;50.32;100118.84;5114844;28;19916;-54
2023/07/24 09:43:28;;;;;;;;;;;;;;;34.74;48.62;100118.69;5098677;28;19920;-53
2023/07/24 09:45:54;;;;;;;;;;;;;;;34.56;47.72;100117.69;5098917;28;19992;-58
2023/07/24 09:48:20;;;;;;;;;;;;;;;34.44;48.44;100127.84;5098653;28;19917;-57
2023/07/24 09:50:47;;;;;;;;;;;;;;;34.40;47.44;100121.44;5098537;28;19922;-57
2023/07/24 09:53:17;;;;;;;;;;;;;;;35.37;44.31;100125.72;5080627;28;19991;-58
2023/07/24 09:55:47;;;;;;;;;;;;;;;33.22;48.79;100135.00;5098163;28;19927;-56
2023/07/24 09:58:13;;;;;;;;;;;;;;;33.56;51.25;100127.69;5097765;28;19935;-56
2023/07/24 10:00:39;;;;;;;;;;;;;;;34.51;49.15;100121.59;5100942;28;19917;-58
2023/07/24 10:03:05;;;;;;;;;;;;;;;34.67;48.42;100124.19;5097970;28;19998;-53
2023/07/24 10:05:31;;;;;;;;;;;;;;;35.00;47.50;100124.53;5097414;28;19916;-57
2023/07/24 10:07:57;;;;;;;;;;;;;;;33.89;49.44;100123.47;5097896;28;19916;-55
2023/07/24 10:10:23;;;;;;;;;;;;;;;32.54;50.96;100118.66;5097868;28;19916;-56
2023/07/24 10:12:49;;;;;;;;;;;;;;;34.01;47.88;100114.16;5097461;28;19924;-55
2023/07/24 10:15:15;;;;;;;;;;;;;;;33.82;48.02;100106.72;5097445;28;19917;-58
2023/07/24 10:17:41;;;;;;;;;;;;;;;33.34;48.36;100104.34;5097540;28;19943;-57
2023/07/24 10:20:09;;;;;;;;;;;;;;;33.75;47.91;100095.53;5097531;28;19927;-57
2023/07/24 10:22:35;;;;;;;;;;;;;;;34.16;47.39;100093.00;5080565;28;19912;-53
2023/07/24 10:25:01;;;;;;;;;;;;;;;35.03;45.78;100096.81;5097417;28;19984;-59
2023/07/24 10:27:28;;;;;;;;;;;;;;;34.73;46.04;100100.44;5099908;28;19924;-59
2023/07/24 10:30:03;;;;;;;;;;;;;;;35.50;45.25;100096.41;5097543;28;19969;-57
2023/07/24 10:32:28;;;;;;;;;;;;;;;35.68;44.62;100106.91;5096824;28;19967;-53
2023/07/24 10:34:59;;;;;;;;;;;;;;;37.23;42.83;100104.03;5096606;28;19920;-55
2023/07/24 10:37:32;;;;;;;;;;;;;;;36.34;42.25;100100.56;5096718;28;19916;-56
2023/07/24 10:39:57;;;;;;;;;;;;;;;37.18;40.96;100104.44;5096816;28;19920;-58
2023/07/24 10:42:23;;;;;;;;;;;;;;;35.71;42.40;100109.72;5096860;28;19955;-59
2023/07/24 10:44:48;;;;;;;;;;;;;;;35.25;43.79;100107.34;5078695;28;20015;-56
2023/07/24 10:47:14;;;;;;;;;;;;;;;35.85;42.99;100111.81;5105330;28;19923;-56
2023/07/24 10:49:42;;;;;;;;;;;;;;;37.11;40.82;100110.81;5098658;28;19940;-58
2023/07/24 10:52:08;;;;;;;;;;;;;;;36.17;42.18;100111.22;5084972;28;19920;-55
2023/07/24 10:54:33;;;;;;;;;;;;;;;36.54;40.88;100111.44;5097184;28;19924;-59
2023/07/24 10:57:00;;;;;;;;;;;;;;;34.61;44.36;100095.16;5092994;28;19974;-58
2023/07/24 10:59:36;;;;;;;;;;;;;;;35.12;43.30;100090.16;5096567;28;19926;-57
2023/07/24 11:02:03;;;;;;;;;;;;;;;35.57;42.26;100104.88;5096730;28;19928;-58
2023/07/24 11:04:29;;;;;;;;;;;;;;;36.65;41.83;100097.53;5096587;28;20315;-57
2023/07/24 11:06:57;;;;;;;;;;;;;;;36.70;40.96;100111.06;5101183;28;19922;-59
2023/07/24 11:09:22;;;;;;;;;;;;;;;37.76;39.07;100110.00;5095820;28;19986;-59
2023/07/24 11:11:51;;;;;;;;;;;;;;;39.66;36.22;100130.25;5101532;28;19924;-59
2023/07/24 11:14:16;;;;;;;;;;;;;;;37.22;38.90;100137.88;5084922;28;19925;-59
2023/07/24 11:16:48;;;;;;;;;;;;;;;36.62;39.99;100140.88;5096741;28;19939;-59
2023/07/24 11:19:22;;;;;;;;;;;;;;;37.00;40.32;100149.78;5096412;28;19912;-57
2023/07/24 11:21:48;;;;;;;;;;;;;;;36.05;40.38;100147.72;5099556;28;19998;-58
2023/07/24 11:24:13;;;;;;;;;;;;;;;36.52;40.30;100145.22;5096098;28;19916;-59
2023/07/24 11:26:39;;;;;;;;;;;;;;;35.72;40.53;100150.25;5095255;28;20252;-60
2023/07/24 11:29:11;;;;;;;;;;;;;;;35.36;41.46;100158.25;5096492;28;19923;-59
2023/07/24 11:31:37;;;;;;;;;;;;;;;35.93;40.84;100145.22;5098541;28;19924;-59
2023/07/24 11:34:02;;;;;;;;;;;;;;;35.00;41.41;100147.56;5096913;28;19923;-57
2023/07/24 11:36:28;;;;;;;;;;;;;;;35.14;41.34;100141.38;5091488;28;19920;-58
2023/07/24 11:38:53;;;;;;;;;;;;;;;34.43;42.54;100158.72;5103739;28;19938;-58
2023/07/24 11:41:19;;;;;;;;;;;;;;;34.61;42.58;100145.13;5089090;28;19966;-58
2023/07/24 11:43:46;;;;;;;;;;;;;;;35.54;40.66;100146.53;5095386;28;19916;-59
2023/07/24 11:46:11;;;;;;;;;;;;;;;36.19;40.26;100146.22;5090821;28;19917;-59
2023/07/24 11:48:41;;;;;;;;;;;;;;;35.24;40.88;100139.09;5100337;28;19939;-58
2023/07/24 11:51:06;;;;;;;;;;;;;;;35.92;40.64;100147.22;5091009;28;19988;-58
2023/07/24 11:53:31;;;;;;;;;;;;;;;35.57;42.94;100141.00;5091046;28;19931;-58
2023/07/24 11:55:58;;;;;;;;;;;;;;;34.97;44.76;100139.19;5089722;28;19952;-56
2023/07/24 11:58:26;;;;;;;;;;;;;;;34.74;48.46;100143.69;5092928;28;19938;-56
2023/07/24 12:00:52;;;;;;;;;;;;;;;33.28;61.41;100137.09;5086918;28;19916;-52
2023/07/24 12:03:21;;;;;;;;;;;;;;;33.10;59.37;100130.44;5095335;28;19983;-60
2023/07/24 12:05:47;;;;;;;;;;;;;;;34.42;56.20;100132.16;5095552;28;19920;-60
2023/07/24 12:08:14;;;;;;;;;;;;;;;34.14;55.48;100142.50;5101684;28;19916;-58
2023/07/24 12:10:39;;;;;;;;;;;;;;;32.95;59.80;100143.19;5095114;28;20272;-59
2023/07/24 12:13:05;;;;;;;;;;;;;;;32.47;60.99;100133.13;5091205;28;19927;-59
2023/07/24 12:15:33;;;;;;;;;;;;;;;34.69;56.58;100132.09;5090345;28;19917;-59
2023/07/24 12:18:00;;;;;;;;;;;;;;;33.50;59.93;100131.97;5103698;28;19916;-60
2023/07/24 12:20:26;;;;;;;;;;;;;;;34.64;56.64;100135.22;5098509;28;20179;-60
2023/07/24 12:22:53;;;;;;;;;;;;;;;35.05;59.75;100131.72;5100021;28;19920;-60
2023/07/24 12:25:19;;;;;;;;;;;;;;;34.13;58.72;100121.44;5098307;28;19924;-59
2023/07/24 12:27:45;;;;;;;;;;;;;;;34.36;57.10;100115.03;5077363;28;19916;-59
2023/07/24 12:30:11;;;;;;;;;;;;;;;34.73;57.03;100113.53;5095081;28;19927;-60